Time;durP1;ratioP1;P1;durP2;ratioP2;P2;SDS_P1;SDS_P2;PMS_P1;PMS_P2;Temp;Humidity;BMP_temperature;BMP_pressure;BME280_temperature;BME280_humidity;BME280_pressure;Samples;Min_cycle;Max_cycle;Signal;HPM_P1;HPM_P2
2023/06/25 00:00:31;;;;;;;0.85;0.85;;;;;;;;;;7395322;19;20133;-89
2023/06/25 00:02:58;;;;;;;1.60;1.50;;;;;;;;;;7394013;19;20141;-89
2023/06/25 00:05:25;;;;;;;1.05;1.05;;;;;;;;;;7392474;19;20155;-89
2023/06/25 00:07:52;;;;;;;0.70;0.70;;;;;;;;;;7392286;19;20147;-89
2023/06/25 00:10:19;;;;;;;0.65;0.55;;;;;;;;;;7395439;19;20139;-89
2023/06/25 00:12:45;;;;;;;1.08;1.08;;;;;;;;;;7392236;19;20200;-89
2023/06/25 00:15:13;;;;;;;0.80;0.80;;;;;;;;;;7390881;19;20493;-91
2023/06/25 00:17:40;;;;;;;0.50;0.50;;;;;;;;;;7387437;19;20208;-90
2023/06/25 00:20:09;;;;;;;0.65;0.65;;;;;;;;;;7386680;19;20149;-91
2023/06/25 00:22:38;;;;;;;1.60;0.82;;;;;;;;;;7387045;19;20164;-89
2023/06/25 00:25:09;;;;;;;1.10;1.02;;;;;;;;;;7391199;19;20152;-89
2023/06/25 00:27:35;;;;;;;0.73;0.73;;;;;;;;;;7391530;19;20610;-88
2023/06/25 00:30:02;;;;;;;0.80;0.68;;;;;;;;;;7387647;19;20133;-88
2023/06/25 00:32:29;;;;;;;1.08;1.08;;;;;;;;;;7393489;19;20493;-88
2023/06/25 00:34:57;;;;;;;0.93;0.93;;;;;;;;;;7391596;19;20507;-88
2023/06/25 00:37:24;;;;;;;1.00;0.95;;;;;;;;;;7386764;19;20137;-87
2023/06/25 00:39:51;;;;;;;1.00;1.00;;;;;;;;;;7392709;19;20136;-87
2023/06/25 00:42:17;;;;;;;0.80;0.80;;;;;;;;;;7387873;19;20136;-88
2023/06/25 00:44:44;;;;;;;0.82;0.82;;;;;;;;;;7384904;19;20145;-89
2023/06/25 00:47:13;;;;;;;0.73;0.73;;;;;;;;;;7387043;19;20149;-88
2023/06/25 00:49:41;;;;;;;1.45;1.35;;;;;;;;;;7389334;19;20148;-88
2023/06/25 00:52:10;;;;;;;0.60;0.60;;;;;;;;;;7389982;19;20125;-88
2023/06/25 00:54:38;;;;;;;0.60;0.60;;;;;;;;;;7392672;19;20578;-88
2023/06/25 00:57:05;;;;;;;1.08;1.08;;;;;;;;;;7391516;19;20131;-89
2023/06/25 00:59:34;;;;;;;0.75;0.75;;;;;;;;;;7395348;19;20148;-90
2023/06/25 01:02:46;;;;;;;0.93;0.93;;;;;;;;;;7391608;19;20140;-89
2023/06/25 01:05:20;;;;;;;0.70;0.70;;;;;;;;;;7411258;19;20149;-89
2023/06/25 01:07:47;;;;;;;1.55;0.93;;;;;;;;;;7417735;19;20145;-90
2023/06/25 01:10:14;;;;;;;1.00;1.00;;;;;;;;;;7410233;19;20174;-88
2023/06/25 01:12:42;;;;;;;1.15;1.08;;;;;;;;;;7393633;19;20602;-90
2023/06/25 01:15:09;;;;;;;0.77;0.77;;;;;;;;;;7399043;19;20164;-90
2023/06/25 01:17:37;;;;;;;0.90;0.90;;;;;;;;;;7399038;19;20133;-90
2023/06/25 01:20:11;;;;;;;0.75;0.75;;;;;;;;;;7400464;19;20133;-90
2023/06/25 01:22:40;;;;;;;0.73;0.73;;;;;;;;;;7399249;19;20144;-90
2023/06/25 01:25:08;;;;;;;0.52;0.52;;;;;;;;;;7397780;19;20153;-89
2023/06/25 01:27:36;;;;;;;0.60;0.60;;;;;;;;;;7400490;19;20621;-90
2023/06/25 01:30:03;;;;;;;1.42;1.33;;;;;;;;;;7406551;19;20184;-89
2023/06/25 01:32:30;;;;;;;1.35;0.75;;;;;;;;;;7404279;19;20158;-91
2023/06/25 01:34:57;;;;;;;0.75;0.75;;;;;;;;;;7403310;19;20231;-90
2023/06/25 01:37:23;;;;;;;0.80;0.80;;;;;;;;;;7396221;19;20141;-90
2023/06/25 01:39:53;;;;;;;0.98;0.98;;;;;;;;;;7397770;19;20154;-90
2023/06/25 01:42:20;;;;;;;0.80;0.80;;;;;;;;;;7394366;19;20121;-90
2023/06/25 01:44:46;;;;;;;1.17;1.17;;;;;;;;;;7391618;19;20181;-90
2023/06/25 01:47:13;;;;;;;0.85;0.85;;;;;;;;;;7391973;19;20143;-90
2023/06/25 01:49:41;;;;;;;1.00;1.00;;;;;;;;;;7389256;19;20129;-90
2023/06/25 01:52:08;;;;;;;1.13;1.00;;;;;;;;;;7388580;19;20148;-90
2023/06/25 01:54:35;;;;;;;0.60;0.60;;;;;;;;;;7390497;19;20153;-90
2023/06/25 01:57:02;;;;;;;0.70;0.70;;;;;;;;;;7389116;19;20147;-89
2023/06/25 01:59:28;;;;;;;1.05;0.93;;;;;;;;;;7390897;19;20137;-90
2023/06/25 02:01:55;;;;;;;0.63;0.63;;;;;;;;;;7389263;19;20772;-90
2023/06/25 02:04:22;;;;;;;0.60;0.60;;;;;;;;;;7390743;19;20156;-89
2023/06/25 02:06:48;;;;;;;0.73;0.73;;;;;;;;;;7391460;19;20473;-89
2023/06/25 02:09:15;;;;;;;1.15;0.93;;;;;;;;;;7388081;19;20141;-88
2023/06/25 02:11:42;;;;;;;1.20;0.88;;;;;;;;;;7389470;19;20133;-90
2023/06/25 02:14:09;;;;;;;0.90;0.90;;;;;;;;;;7390082;19;20165;-90
2023/06/25 02:16:36;;;;;;;0.57;0.57;;;;;;;;;;7402085;19;20660;-90
2023/06/25 02:19:03;;;;;;;0.70;0.70;;;;;;;;;;7402218;19;20141;-90
2023/06/25 02:21:29;;;;;;;0.82;0.82;;;;;;;;;;7403396;19;20139;-91
2023/06/25 02:23:56;;;;;;;1.10;1.10;;;;;;;;;;7399730;19;20677;-90
2023/06/25 02:26:23;;;;;;;1.05;0.80;;;;;;;;;;7402822;19;20143;-90
2023/06/25 02:28:49;;;;;;;0.70;0.70;;;;;;;;;;7401789;19;20137;-90
2023/06/25 02:31:18;;;;;;;0.50;0.50;;;;;;;;;;7403211;19;20159;-90
2023/06/25 02:33:45;;;;;;;0.68;0.68;;;;;;;;;;7398697;19;20165;-91
2023/06/25 02:36:11;;;;;;;0.75;0.75;;;;;;;;;;7401121;19;20139;-90
2023/06/25 02:38:38;;;;;;;0.75;0.75;;;;;;;;;;7399571;19;20145;-91
2023/06/25 02:41:05;;;;;;;0.60;0.60;;;;;;;;;;7393594;19;20133;-91
2023/06/25 02:43:31;;;;;;;0.43;0.43;;;;;;;;;;7396952;19;20164;-90
2023/06/25 02:45:58;;;;;;;0.60;0.60;;;;;;;;;;7396299;19;20125;-90
2023/06/25 02:48:25;;;;;;;0.65;0.65;;;;;;;;;;7396389;19;20137;-90
2023/06/25 02:50:51;;;;;;;0.60;0.60;;;;;;;;;;7395516;19;20137;-90
2023/06/25 02:53:18;;;;;;;2.97;1.30;;;;;;;;;;7398053;19;20136;-90
2023/06/25 02:55:46;;;;;;;1.00;0.70;;;;;;;;;;7398513;19;20133;-90
2023/06/25 02:58:12;;;;;;;0.57;0.57;;;;;;;;;;7398257;19;20159;-90
2023/06/25 03:00:39;;;;;;;0.60;0.60;;;;;;;;;;7399521;19;20610;-91
2023/06/25 03:03:06;;;;;;;1.05;1.05;;;;;;;;;;7398612;19;20133;-90
2023/06/25 03:05:33;;;;;;;0.65;0.65;;;;;;;;;;7402849;19;20212;-89
2023/06/25 03:08:00;;;;;;;1.10;1.00;;;;;;;;;;7400695;19;20124;-90
2023/06/25 03:10:29;;;;;;;0.50;0.50;;;;;;;;;;7401242;19;20145;-90
2023/06/25 03:12:56;;;;;;;1.25;1.15;;;;;;;;;;7399354;19;20160;-90
2023/06/25 03:15:23;;;;;;;0.90;0.75;;;;;;;;;;7394643;19;20155;-90
2023/06/25 03:17:50;;;;;;;0.50;0.50;;;;;;;;;;7393668;19;20151;-91
2023/06/25 03:20:16;;;;;;;0.73;0.73;;;;;;;;;;7394264;19;20213;-90
2023/06/25 03:22:43;;;;;;;1.60;1.10;;;;;;;;;;7394253;19;20144;-90
2023/06/25 03:25:10;;;;;;;0.75;0.75;;;;;;;;;;7389873;19;20157;-91
2023/06/25 03:27:37;;;;;;;1.52;1.00;;;;;;;;;;7394810;19;20152;-89
2023/06/25 03:30:04;;;;;;;0.95;0.95;;;;;;;;;;7399145;19;20144;-89
2023/06/25 03:32:31;;;;;;;3.33;1.20;;;;;;;;;;7404830;19;20137;-89
2023/06/25 03:34:59;;;;;;;0.85;0.85;;;;;;;;;;7420025;19;20140;-89
2023/06/25 03:37:25;;;;;;;2.63;0.60;;;;;;;;;;7426921;19;20162;-88
2023/06/25 03:39:52;;;;;;;0.57;0.57;;;;;;;;;;7426925;19;20169;-88
2023/06/25 03:42:18;;;;;;;0.47;0.47;;;;;;;;;;7426755;19;20142;-89
2023/06/25 03:44:50;;;;;;;1.02;0.80;;;;;;;;;;7425736;19;20148;-90
2023/06/25 03:47:16;;;;;;;0.52;0.52;;;;;;;;;;7427692;19;20131;-90
2023/06/25 03:49:43;;;;;;;1.15;1.05;;;;;;;;;;7427836;19;20144;-91
2023/06/25 03:52:10;;;;;;;0.52;0.52;;;;;;;;;;7427155;19;20142;-89
2023/06/25 03:54:37;;;;;;;0.50;0.50;;;;;;;;;;7426145;19;20157;-89
2023/06/25 03:57:04;;;;;;;0.68;0.68;;;;;;;;;;7399130;19;20140;-90
2023/06/25 03:59:31;;;;;;;0.80;0.80;;;;;;;;;;7388441;19;20145;-90
2023/06/25 04:01:58;;;;;;;1.60;0.90;;;;;;;;;;7392407;19;20141;-89
2023/06/25 04:04:25;;;;;;;1.58;1.27;;;;;;;;;;7390017;19;20605;-90
2023/06/25 04:06:52;;;;;;;1.25;1.15;;;;;;;;;;7390044;19;20140;-89
2023/06/25 04:09:19;;;;;;;0.70;0.70;;;;;;;;;;7389570;19;20145;-89
2023/06/25 04:11:45;;;;;;;1.23;1.13;;;;;;;;;;7389878;19;20147;-89
2023/06/25 04:14:12;;;;;;;0.50;0.50;;;;;;;;;;7393369;19;20145;-89
2023/06/25 04:16:39;;;;;;;0.60;0.60;;;;;;;;;;7389529;19;20767;-89
2023/06/25 04:19:05;;;;;;;1.48;1.38;;;;;;;;;;7389729;19;20140;-89
2023/06/25 04:21:32;;;;;;;1.33;1.08;;;;;;;;;;7389532;19;20137;-90
2023/06/25 04:24:00;;;;;;;0.77;0.77;;;;;;;;;;7391562;19;20149;-90
2023/06/25 04:26:27;;;;;;;0.90;0.90;;;;;;;;;;7391289;19;20133;-90
2023/06/25 04:28:53;;;;;;;0.50;0.50;;;;;;;;;;7392267;19;20129;-89
2023/06/25 04:31:23;;;;;;;0.65;0.65;;;;;;;;;;7393235;19;20144;-90
2023/06/25 04:33:50;;;;;;;1.40;0.82;;;;;;;;;;7392495;19;20149;-90
2023/06/25 04:36:18;;;;;;;0.43;0.43;;;;;;;;;;7390777;19;20160;-90
2023/06/25 04:38:44;;;;;;;1.05;1.05;;;;;;;;;;7388830;19;20164;-90
2023/06/25 04:41:14;;;;;;;0.40;0.40;;;;;;;;;;7393397;19;20141;-90
2023/06/25 04:43:40;;;;;;;0.73;0.73;;;;;;;;;;7393586;19;20161;-89
2023/06/25 04:46:07;;;;;;;0.95;0.95;;;;;;;;;;7387815;19;20129;-90
2023/06/25 04:48:34;;;;;;;1.45;1.35;;;;;;;;;;7387155;19;20137;-89
2023/06/25 04:51:00;;;;;;;1.75;0.80;;;;;;;;;;7389287;19;20140;-90
2023/06/25 04:53:27;;;;;;;0.80;0.80;;;;;;;;;;7386906;19;20137;-88
2023/06/25 04:55:54;;;;;;;0.50;0.50;;;;;;;;;;7386494;19;20141;-89
2023/06/25 04:58:21;;;;;;;0.45;0.45;;;;;;;;;;7388346;19;20689;-89
2023/06/25 05:00:47;;;;;;;0.90;0.90;;;;;;;;;;7389744;19;20133;-90
2023/06/25 05:03:14;;;;;;;1.05;0.60;;;;;;;;;;7387426;19;20142;-89
2023/06/25 05:05:41;;;;;;;2.05;1.02;;;;;;;;;;7385919;19;20144;-90
2023/06/25 05:08:08;;;;;;;0.63;0.63;;;;;;;;;;7388366;19;20481;-89
2023/06/25 05:10:35;;;;;;;0.65;0.65;;;;;;;;;;7386367;19;20136;-89
2023/06/25 05:13:03;;;;;;;0.80;0.80;;;;;;;;;;7387962;19;20189;-89
2023/06/25 05:15:30;;;;;;;0.43;0.43;;;;;;;;;;7385199;19;20164;-90
2023/06/25 05:17:57;;;;;;;0.57;0.55;;;;;;;;;;7391955;19;20143;-89
2023/06/25 05:20:24;;;;;;;1.38;1.30;;;;;;;;;;7394162;19;20143;-89
2023/06/25 05:22:50;;;;;;;0.68;0.68;;;;;;;;;;7394384;19;20135;-89
2023/06/25 05:25:17;;;;;;;1.88;1.38;;;;;;;;;;7392856;19;20177;-89
2023/06/25 05:27:44;;;;;;;0.85;0.85;;;;;;;;;;7392465;19;20662;-89
2023/06/25 05:30:11;;;;;;;1.05;0.95;;;;;;;;;;7390896;19;20541;-90
2023/06/25 05:32:37;;;;;;;0.73;0.73;;;;;;;;;;7391477;19;20133;-89
2023/06/25 05:35:05;;;;;;;0.65;0.65;;;;;;;;;;7394759;19;20159;-89
2023/06/25 05:37:31;;;;;;;3.28;1.55;;;;;;;;;;7396530;19;20181;-89
2023/06/25 05:39:58;;;;;;;0.88;0.88;;;;;;;;;;7397618;19;20184;-90
2023/06/25 05:42:25;;;;;;;3.10;1.38;;;;;;;;;;7396472;19;20140;-89
2023/06/25 05:44:51;;;;;;;1.17;1.10;;;;;;;;;;7396314;19;20149;-89
2023/06/25 05:47:18;;;;;;;0.50;0.50;;;;;;;;;;7393559;19;20144;-88
2023/06/25 05:49:44;;;;;;;1.02;0.98;;;;;;;;;;7402508;19;20152;-89
2023/06/25 05:52:11;;;;;;;1.27;1.17;;;;;;;;;;7408478;19;20254;-89
2023/06/25 05:54:38;;;;;;;0.47;0.47;;;;;;;;;;7407237;19;20163;-89
2023/06/25 05:57:04;;;;;;;1.85;1.75;;;;;;;;;;7403639;19;20156;-89
2023/06/25 05:59:31;;;;;;;0.73;0.70;;;;;;;;;;7405681;19;20500;-89
2023/06/25 06:01:58;;;;;;;0.80;0.80;;;;;;;;;;7408980;19;20766;-89
2023/06/25 06:04:24;;;;;;;1.25;1.15;;;;;;;;;;7406440;19;20196;-89
2023/06/25 06:06:51;;;;;;;1.40;0.88;;;;;;;;;;7405642;19;20524;-89
2023/06/25 06:09:18;;;;;;;1.08;0.93;;;;;;;;;;7403719;19;20141;-90
2023/06/25 06:11:45;;;;;;;0.70;0.70;;;;;;;;;;7409997;19;20129;-88
2023/06/25 06:14:11;;;;;;;1.42;0.73;;;;;;;;;;7424210;19;20180;-88
2023/06/25 06:16:38;;;;;;;0.65;0.65;;;;;;;;;;7425223;19;20180;-88
2023/06/25 06:19:07;;;;;;;1.33;1.15;;;;;;;;;;7398768;19;20197;-89
2023/06/25 06:21:34;;;;;;;1.30;1.20;;;;;;;;;;7396832;19;20549;-89
2023/06/25 06:24:01;;;;;;;0.47;0.47;;;;;;;;;;7395042;19;20184;-89
2023/06/25 06:26:27;;;;;;;0.68;0.68;;;;;;;;;;7396956;19;20145;-89
2023/06/25 06:28:54;;;;;;;0.65;0.65;;;;;;;;;;7397921;19;20147;-89
2023/06/25 06:31:23;;;;;;;0.80;0.80;;;;;;;;;;7396659;19;20205;-88
2023/06/25 06:33:50;;;;;;;0.50;0.50;;;;;;;;;;7394863;19;20157;-88
2023/06/25 06:36:17;;;;;;;1.73;1.17;;;;;;;;;;7413010;19;20133;-88
2023/06/25 06:38:43;;;;;;;1.13;1.10;;;;;;;;;;7421336;19;20126;-89
2023/06/25 06:41:10;;;;;;;0.55;0.55;;;;;;;;;;7422499;19;20133;-89
2023/06/25 06:43:37;;;;;;;1.15;1.15;;;;;;;;;;7400398;19;20168;-89
2023/06/25 06:46:03;;;;;;;1.13;1.10;;;;;;;;;;7397619;19;20606;-89
2023/06/25 06:48:33;;;;;;;0.55;0.55;;;;;;;;;;7398917;19;20125;-88
2023/06/25 06:51:23;;;;;;;1.05;1.05;;;;;;;;;;7395283;19;20145;-86
2023/06/25 06:53:53;;;;;;;0.90;0.90;;;;;;;;;;7396272;19;20212;-88
2023/06/25 06:56:19;;;;;;;0.60;0.60;;;;;;;;;;7398646;19;20156;-87
2023/06/25 06:58:46;;;;;;;1.45;0.85;;;;;;;;;;7395751;19;20139;-87
2023/06/25 07:01:13;;;;;;;1.25;1.17;;;;;;;;;;7396300;19;20687;-88
2023/06/25 07:03:40;;;;;;;1.02;1.02;;;;;;;;;;7393607;19;20160;-88
2023/06/25 07:06:07;;;;;;;1.17;1.10;;;;;;;;;;7397304;19;20163;-87
2023/06/25 07:08:33;;;;;;;0.70;0.70;;;;;;;;;;7399278;19;20148;-88
2023/06/25 07:11:00;;;;;;;1.17;0.73;;;;;;;;;;7394998;19;20149;-87
2023/06/25 07:13:28;;;;;;;1.13;1.13;;;;;;;;;;7396283;19;20145;-88
2023/06/25 07:15:55;;;;;;;0.88;0.88;;;;;;;;;;7398406;19;20133;-89
2023/06/25 07:18:21;;;;;;;0.63;0.63;;;;;;;;;;7395900;19;20137;-88
2023/06/25 07:20:48;;;;;;;1.05;1.05;;;;;;;;;;7401091;19;20527;-89
2023/06/25 07:23:15;;;;;;;1.55;1.45;;;;;;;;;;7404476;19;20168;-89
2023/06/25 07:25:42;;;;;;;0.60;0.60;;;;;;;;;;7402341;19;20622;-89
2023/06/25 07:28:09;;;;;;;0.50;0.50;;;;;;;;;;7402785;19;20147;-88
2023/06/25 07:30:36;;;;;;;1.10;0.93;;;;;;;;;;7393239;19;20141;-88
2023/06/25 07:33:03;;;;;;;0.80;0.80;;;;;;;;;;7394601;19;20138;-89
2023/06/25 07:35:30;;;;;;;0.65;0.65;;;;;;;;;;7393388;19;20169;-88
2023/06/25 07:37:56;;;;;;;1.80;1.48;;;;;;;;;;7396804;19;20180;-89
2023/06/25 07:40:23;;;;;;;1.52;1.42;;;;;;;;;;7395996;19;20133;-88
2023/06/25 07:42:50;;;;;;;1.30;1.20;;;;;;;;;;7394236;19;20141;-88
2023/06/25 07:45:16;;;;;;;1.02;0.98;;;;;;;;;;7394463;19;20171;-88
2023/06/25 07:47:43;;;;;;;1.30;1.25;;;;;;;;;;7395818;19;20141;-89
2023/06/25 07:50:10;;;;;;;0.82;0.82;;;;;;;;;;7395324;19;20509;-90
2023/06/25 07:52:37;;;;;;;1.65;1.45;;;;;;;;;;7394205;19;20145;-88
2023/06/25 07:55:04;;;;;;;1.05;0.95;;;;;;;;;;7391721;19;20212;-87
2023/06/25 07:57:32;;;;;;;1.05;1.05;;;;;;;;;;7390864;19;20613;-88
2023/06/25 07:59:59;;;;;;;0.88;0.85;;;;;;;;;;7393010;19;20145;-87
2023/06/25 08:02:25;;;;;;;1.00;1.00;;;;;;;;;;7392838;19;20228;-89
2023/06/25 08:04:52;;;;;;;0.77;0.77;;;;;;;;;;7394386;19;20213;-88
2023/06/25 08:07:19;;;;;;;1.55;1.30;;;;;;;;;;7392026;19;20141;-88
2023/06/25 08:09:47;;;;;;;3.72;1.23;;;;;;;;;;7392969;19;20137;-88
2023/06/25 08:12:19;;;;;;;1.65;0.88;;;;;;;;;;7389816;19;20197;-86
2023/06/25 08:14:46;;;;;;;0.82;0.82;;;;;;;;;;7395023;19;20145;-87
2023/06/25 08:17:13;;;;;;;0.90;0.90;;;;;;;;;;7395929;19;20297;-88
2023/06/25 08:19:39;;;;;;;0.40;0.40;;;;;;;;;;7391061;19;20151;-87
2023/06/25 08:22:12;;;;;;;1.52;1.40;;;;;;;;;;7394524;19;20144;-87
2023/06/25 08:24:39;;;;;;;3.72;1.35;;;;;;;;;;7393645;19;20232;-88
2023/06/25 08:27:05;;;;;;;0.98;0.90;;;;;;;;;;7392403;19;20602;-88
2023/06/25 08:29:32;;;;;;;1.25;1.13;;;;;;;;;;7392986;19;20144;-89
2023/06/25 08:31:59;;;;;;;0.93;0.93;;;;;;;;;;7394414;19;20133;-88
2023/06/25 08:34:26;;;;;;;2.15;0.95;;;;;;;;;;7391088;19;20160;-88
2023/06/25 08:37:15;;;;;;;1.63;0.98;;;;;;;;;;7392043;19;20160;-88
2023/06/25 08:39:57;;;;;;;1.65;1.55;;;;;;;;;;7390787;19;20517;-88
2023/06/25 08:42:38;;;;;;;1.20;1.17;;;;;;;;;;7391836;19;20148;-86
2023/06/25 08:45:51;;;;;;;1.13;1.13;;;;;;;;;;7391838;19;20149;-87
2023/06/25 08:48:19;;;;;;;1.40;1.13;;;;;;;;;;7389965;19;20191;-87
2023/06/25 08:50:54;;;;;;;1.33;1.17;;;;;;;;;;7395460;19;20168;-86
2023/06/25 08:53:21;;;;;;;1.55;1.45;;;;;;;;;;7390070;19;20166;-87
2023/06/25 09:00:42;;;;;;;1.80;1.45;;;;;;;;;;7401648;19;20194;-90
2023/06/25 09:28:08;;;;;;;1.02;1.00;;;;;;;;;;7386708;19;20116;-89
2023/06/25 09:30:58;;;;;;;1.00;1.00;;;;;;;;;;7384982;19;20229;-90
2023/06/25 09:33:50;;;;;;;1.13;1.08;;;;;;;;;;7387377;19;20148;-90
2023/06/25 09:36:17;;;;;;;1.17;1.10;;;;;;;;;;7392994;19;20582;-92
2023/06/25 09:39:10;;;;;;;3.17;0.70;;;;;;;;;;7391681;19;20408;-91
2023/06/25 09:41:40;;;;;;;0.77;0.77;;;;;;;;;;7392337;19;20137;-90
2023/06/25 09:44:50;;;;;;;2.25;1.10;;;;;;;;;;7388588;19;20638;-90
2023/06/25 09:47:19;;;;;;;1.55;1.55;;;;;;;;;;7390352;19;20164;-90
2023/06/25 09:49:56;;;;;;;0.73;0.73;;;;;;;;;;7393610;19;20601;-90
2023/06/25 09:52:34;;;;;;;0.77;0.77;;;;;;;;;;7391084;19;20138;-90
2023/06/25 10:03:17;;;;;;;0.65;0.65;;;;;;;;;;7390121;19;20153;-85
2023/06/25 10:05:44;;;;;;;5.93;0.77;;;;;;;;;;7392496;19;20487;-87
2023/06/25 10:08:15;;;;;;;0.68;0.68;;;;;;;;;;7392003;19;20139;-87
2023/06/25 10:10:42;;;;;;;0.60;0.60;;;;;;;;;;7392176;19;20157;-87
2023/06/25 10:13:10;;;;;;;1.17;1.08;;;;;;;;;;7392297;19;20163;-89
2023/06/25 10:15:38;;;;;;;1.35;1.05;;;;;;;;;;7387460;19;20147;-91
2023/06/25 10:18:06;;;;;;;0.98;0.98;;;;;;;;;;7388655;19;20629;-91
2023/06/25 10:20:35;;;;;;;1.38;0.75;;;;;;;;;;7387659;19;20144;-91
2023/06/25 10:23:06;;;;;;;1.08;0.98;;;;;;;;;;7388868;19;20129;-87
2023/06/25 10:25:56;;;;;;;0.70;0.70;;;;;;;;;;7389158;19;20172;-87
2023/06/25 10:28:38;;;;;;;0.57;0.57;;;;;;;;;;7389489;19;20189;-86
2023/06/25 10:34:53;;;;;;;0.95;0.95;;;;;;;;;;7387851;19;20157;-86
2023/06/25 10:37:34;;;;;;;1.23;1.23;;;;;;;;;;7389055;19;20133;-85
2023/06/25 11:13:26;;;;;;;0.88;0.85;;;;;;;;;;7408961;19;20160;-87
2023/06/25 17:03:39;;;;;;;0.88;0.88;;;;;;;;;;7392957;19;20154;-89
2023/06/25 17:06:06;;;;;;;1.23;1.13;;;;;;;;;;7391885;19;20220;-91
2023/06/25 17:08:33;;;;;;;0.90;0.60;;;;;;;;;;7389956;19;20144;-91
2023/06/25 17:11:00;;;;;;;1.55;1.45;;;;;;;;;;7392033;19;20145;-89
2023/06/25 17:13:29;;;;;;;1.13;1.13;;;;;;;;;;7391110;19;20497;-92
2023/06/25 17:15:57;;;;;;;0.90;0.90;;;;;;;;;;7391652;19;20141;-91
2023/06/25 17:22:34;;;;;;;1.15;1.15;;;;;;;;;;7391021;19;20151;-92
2023/06/25 17:25:45;;;;;;;1.10;0.95;;;;;;;;;;7415466;19;20145;-93
2023/06/25 17:28:27;;;;;;;1.10;0.70;;;;;;;;;;7421089;19;20136;-92
2023/06/25 17:34:16;;;;;;;1.08;1.02;;;;;;;;;;7423326;19;20147;-89
2023/06/25 17:36:43;;;;;;;0.60;0.60;;;;;;;;;;7420532;19;20196;-89
2023/06/25 17:39:10;;;;;;;1.00;1.00;;;;;;;;;;7421597;19;20146;-90
2023/06/25 17:41:36;;;;;;;1.23;1.15;;;;;;;;;;7419708;19;20129;-91
2023/06/25 17:44:03;;;;;;;0.93;0.93;;;;;;;;;;7419982;19;20133;-90
2023/06/25 17:46:31;;;;;;;0.82;0.82;;;;;;;;;;7420075;19;20137;-91
2023/06/25 17:48:58;;;;;;;0.80;0.80;;;;;;;;;;7419585;19;20129;-89
2023/06/25 17:51:25;;;;;;;1.35;1.25;;;;;;;;;;7421469;19;20132;-89
2023/06/25 17:53:52;;;;;;;0.88;0.88;;;;;;;;;;7419982;19;20141;-90
2023/06/25 17:56:37;;;;;;;0.93;0.93;;;;;;;;;;7417842;19;20125;-92
2023/06/25 17:59:04;;;;;;;1.08;1.02;;;;;;;;;;7418295;19;20133;-90
2023/06/25 18:01:30;;;;;;;0.75;0.75;;;;;;;;;;7422024;19;20141;-88
2023/06/25 18:03:57;;;;;;;0.88;0.88;;;;;;;;;;7405736;19;20169;-93
2023/06/25 18:06:25;;;;;;;1.48;1.38;;;;;;;;;;7386960;19;20154;-92
2023/06/25 18:08:51;;;;;;;0.65;0.65;;;;;;;;;;7391165;19;20214;-92
2023/06/25 18:11:24;;;;;;;1.13;1.02;;;;;;;;;;7419180;19;20146;-88
2023/06/25 18:13:52;;;;;;;1.02;1.02;;;;;;;;;;7418440;19;20148;-91
2023/06/25 18:16:19;;;;;;;0.90;0.90;;;;;;;;;;7415741;19;20137;-88
2023/06/25 18:18:50;;;;;;;0.88;0.88;;;;;;;;;;7421277;19;20176;-93
2023/06/25 18:21:18;;;;;;;0.98;0.98;;;;;;;;;;7412594;19;20137;-91
2023/06/25 18:23:45;;;;;;;1.20;1.10;;;;;;;;;;7398929;19;20167;-93
2023/06/25 18:26:15;;;;;;;0.95;0.95;;;;;;;;;;7388659;19;20137;-93
2023/06/25 18:28:42;;;;;;;0.80;0.80;;;;;;;;;;7387939;19;20504;-92
2023/06/25 18:31:10;;;;;;;1.52;1.42;;;;;;;;;;7388220;19;20137;-91
2023/06/25 18:33:39;;;;;;;0.90;0.90;;;;;;;;;;7388696;19;20180;-87
2023/06/25 18:36:09;;;;;;;0.93;0.90;;;;;;;;;;7390408;19;20133;-90
2023/06/25 18:38:35;;;;;;;0.60;0.60;;;;;;;;;;7388234;19;20148;-87
2023/06/25 18:41:04;;;;;;;1.30;1.30;;;;;;;;;;7386146;19;20598;-88
2023/06/25 18:43:33;;;;;;;1.38;1.27;;;;;;;;;;7389358;19;20133;-89
2023/06/25 18:46:00;;;;;;;0.85;0.85;;;;;;;;;;7391417;19;20137;-88
2023/06/25 18:48:37;;;;;;;2.28;1.15;;;;;;;;;;7388775;19;20142;-87
2023/06/25 18:51:04;;;;;;;0.80;0.80;;;;;;;;;;7388752;19;20132;-89
2023/06/25 18:54:11;;;;;;;1.00;1.00;;;;;;;;;;7386761;19;20213;-88
2023/06/25 19:00:19;;;;;;;0.70;0.70;;;;;;;;;;7392577;19;20161;-88
2023/06/25 19:03:53;;;;;;;1.00;0.85;;;;;;;;;;7391851;19;20137;-88
2023/06/25 19:06:47;;;;;;;0.73;0.73;;;;;;;;;;7395242;19;20489;-89
2023/06/25 19:10:22;;;;;;;0.70;0.70;;;;;;;;;;7389141;19;20642;-89
2023/06/25 19:17:25;;;;;;;1.75;1.10;;;;;;;;;;7390328;19;20590;-89
2023/06/25 19:39:39;;;;;;;1.58;1.27;;;;;;;;;;7396856;19;20157;-92
2023/06/25 19:42:06;;;;;;;0.80;0.80;;;;;;;;;;7395012;19;20137;-88
2023/06/25 19:44:38;;;;;;;1.38;1.30;;;;;;;;;;7387972;19;20529;-89
2023/06/25 19:47:13;;;;;;;1.23;0.95;;;;;;;;;;7392698;19;20148;-90
2023/06/25 19:49:47;;;;;;;1.40;0.88;;;;;;;;;;7393943;19;20594;-89
2023/06/25 19:52:27;;;;;;;0.77;0.77;;;;;;;;;;7390992;19;20531;-88
2023/06/25 19:54:55;;;;;;;1.45;1.35;;;;;;;;;;7391545;19;20168;-88
2023/06/25 19:57:25;;;;;;;1.25;1.17;;;;;;;;;;7391864;19;20133;-89
2023/06/25 20:46:31;;;;;;;1.45;1.40;;;;;;;;;;7389086;19;20116;-91
2023/06/25 21:39:16;;;;;;;1.95;1.75;;;;;;;;;;7127789;19;50413;-89
2023/06/25 21:41:43;;;;;;;3.95;1.25;;;;;;;;;;7426016;19;20143;-90
2023/06/25 21:44:10;;;;;;;1.73;1.23;;;;;;;;;;7428073;19;20602;-89
2023/06/25 21:46:41;;;;;;;2.08;1.33;;;;;;;;;;7425122;19;20221;-90
2023/06/25 21:49:08;;;;;;;0.90;0.90;;;;;;;;;;7425092;19;20133;-89
2023/06/25 21:51:35;;;;;;;2.42;1.67;;;;;;;;;;7425775;19;20140;-89
2023/06/25 21:54:02;;;;;;;1.50;1.25;;;;;;;;;;7426486;19;20153;-89
2023/06/25 21:56:29;;;;;;;1.23;1.17;;;;;;;;;;7426626;19;20151;-90
2023/06/25 21:58:55;;;;;;;1.08;0.73;;;;;;;;;;7417506;19;20140;-90
2023/06/25 22:01:22;;;;;;;1.45;1.33;;;;;;;;;;7397479;19;20621;-89
2023/06/25 22:03:49;;;;;;;1.50;1.30;;;;;;;;;;7397927;19;20526;-89
2023/06/25 22:06:16;;;;;;;1.33;1.25;;;;;;;;;;7398677;19;20125;-89
2023/06/25 22:08:42;;;;;;;1.27;0.95;;;;;;;;;;7394036;19;20523;-89
2023/06/25 22:11:09;;;;;;;0.85;0.85;;;;;;;;;;7402886;19;20133;-89
2023/06/25 22:13:39;;;;;;;0.95;0.95;;;;;;;;;;7403143;19;20163;-87
2023/06/25 22:16:06;;;;;;;0.85;0.85;;;;;;;;;;7402557;19;20134;-91
2023/06/25 22:18:37;;;;;;;1.38;1.33;;;;;;;;;;7400788;19;20140;-91
2023/06/25 22:21:09;;;;;;;1.15;1.15;;;;;;;;;;7401561;19;20133;-92
2023/06/25 22:42:39;;;;;;;;;;;;;;;;;;;;;
2023/06/25 22:45:18;;;;;;;1.27;1.27;;;;;;;;;;7389980;19;20163;-92
2023/06/25 22:48:00;;;;;;;;;;;;;;;;;;;;;
2023/06/25 22:50:31;;;;;;;1.23;1.15;;;;;;;;;;7392579;19;20132;-91
2023/06/25 22:52:58;;;;;;;0.95;0.95;;;;;;;;;;7389437;19;20510;-91
2023/06/25 22:55:25;;;;;;;1.15;1.10;;;;;;;;;;7392420;19;20153;-92
2023/06/25 22:58:09;;;;;;;1.85;1.75;;;;;;;;;;7391635;19;20180;-91
2023/06/25 23:00:37;;;;;;;3.65;1.63;;;;;;;;;;7394046;19;20212;-91
2023/06/25 23:03:04;;;;;;;3.03;1.00;;;;;;;;;;7391387;19;20148;-92
2023/06/25 23:05:31;;;;;;;1.00;1.00;;;;;;;;;;7392039;19;20153;-91
2023/06/25 23:07:57;;;;;;;0.73;0.73;;;;;;;;;;7391202;19;20225;-92
2023/06/25 23:10:33;;;;;;;1.08;0.95;;;;;;;;;;7389204;19;20133;-92
2023/06/25 23:13:01;;;;;;;1.40;1.30;;;;;;;;;;7392872;19;20135;-89
2023/06/25 23:15:28;;;;;;;1.52;1.42;;;;;;;;;;7391952;19;20704;-88
2023/06/25 23:17:55;;;;;;;0.80;0.80;;;;;;;;;;7396679;19;20141;-88
2023/06/25 23:20:24;;;;;;;1.10;1.10;;;;;;;;;;7399262;19;20697;-88
2023/06/25 23:22:52;;;;;;;0.93;0.93;;;;;;;;;;7399851;19;20133;-89
2023/06/25 23:25:19;;;;;;;1.73;1.42;;;;;;;;;;7397162;19;20208;-88
2023/06/25 23:27:57;;;;;;;1.15;1.15;;;;;;;;;;7397715;19;20679;-89
2023/06/25 23:30:25;;;;;;;1.98;1.77;;;;;;;;;;7400139;19;20145;-89
2023/06/25 23:32:52;;;;;;;1.02;1.02;;;;;;;;;;7398247;19;20220;-89
2023/06/25 23:35:19;;;;;;;1.83;1.50;;;;;;;;;;7398410;19;21064;-89
2023/06/25 23:37:46;;;;;;;1.20;1.20;;;;;;;;;;7401684;19;21157;-88
2023/06/25 23:40:13;;;;;;;0.88;0.88;;;;;;;;;;7401932;19;20200;-89
2023/06/25 23:42:39;;;;;;;1.25;1.15;;;;;;;;;;7401102;19;20220;-89
2023/06/25 23:45:06;;;;;;;1.00;1.00;;;;;;;;;;7401070;19;20593;-89
2023/06/25 23:47:33;;;;;;;1.73;1.63;;;;;;;;;;7401436;19;20157;-89
2023/06/25 23:50:02;;;;;;;1.17;1.17;;;;;;;;;;7399650;19;20141;-89
2023/06/25 23:52:29;;;;;;;2.13;1.92;;;;;;;;;;7398770;19;20478;-90
2023/06/25 23:54:56;;;;;;;1.20;1.20;;;;;;;;;;7399872;19;20153;-90
2023/06/25 23:57:22;;;;;;;1.80;1.70;;;;;;;;;;7399243;19;20205;-90
2023/06/25 23:59:49;;;;;;;0.88;0.88;;;;;;;;;;7403693;19;20193;-89
